Time;durP1;ratioP1;P1;durP2;ratioP2;P2;SDS_P1;SDS_P2;PMS_P1;PMS_P2;Temp;Humidity;BMP_temperature;BMP_pressure;BME280_temperature;BME280_humidity;BME280_pressure;Samples;Min_cycle;Max_cycle;Signal;HPM_P1;HPM_P2
2023/12/26 10:33:41;;;;;;;2.20;2.00;;;10.10;99.90;;;;;;4863711;29;20497;-84
2023/12/26 11:01:49;;;;;;;1.73;1.50;;;10.30;99.90;;;;;;4899402;29;20450;-82
2023/12/26 11:11:42;;;;;;;2.20;1.60;;;10.40;99.90;;;;;;4981447;28;20462;-84
2023/12/26 11:15:36;;;;;;;2.10;1.53;;;10.50;99.90;;;;;;5038429;28;20453;-82
2023/12/26 11:18:42;;;;;;;1.60;1.50;;;10.50;99.90;;;;;;5038539;28;20450;-83
2023/12/26 11:21:34;;;;;;;3.70;1.53;;;10.80;99.90;;;;;;5037918;28;20466;-83
2023/12/26 11:45:05;;;;;;;1.73;1.63;;;10.90;99.90;;;;;;4884299;29;20437;-78
2023/12/26 11:47:40;;;;;;;1.80;1.30;;;10.80;99.90;;;;;;4911470;28;20451;-80
2023/12/26 11:50:15;;;;;;;1.30;1.30;;;10.80;99.90;;;;;;5041130;28;20451;-81
2023/12/26 11:52:43;;;;;;;1.53;1.43;;;10.80;99.90;;;;;;5038755;28;20480;-81
2023/12/26 11:55:18;;;;;;;1.27;1.17;;;11.10;99.90;;;;;;5038618;28;20943;-80
2023/12/26 11:57:55;;;;;;;1.23;1.13;;;10.90;99.90;;;;;;5036234;28;20474;-80
2023/12/26 12:00:36;;;;;;;2.53;1.30;;;10.90;99.90;;;;;;5048932;28;20469;-80
2023/12/26 12:04:52;;;;;;;1.70;1.53;;;10.70;99.90;;;;;;5057389;28;20452;-80
2023/12/26 12:10:18;;;;;;;1.97;1.50;;;10.70;99.90;;;;;;5041243;28;20418;-80
2023/12/26 12:12:55;;;;;;;2.43;1.20;;;10.70;99.90;;;;;;5059519;28;21024;-80
2023/12/26 12:15:27;;;;;;;2.87;1.33;;;11.00;99.90;;;;;;5058919;28;20453;-79
2023/12/26 12:17:56;;;;;;;1.10;1.10;;;10.70;99.90;;;;;;5059174;28;20519;-80
2023/12/26 12:20:35;;;;;;;1.60;1.50;;;11.10;99.90;;;;;;5059226;28;20504;-81
2023/12/26 12:23:10;;;;;;;1.73;1.00;;;11.00;99.90;;;;;;5060945;28;20451;-80
2023/12/26 12:25:48;;;;;;;1.00;1.00;;;10.90;99.90;;;;;;5062264;28;20575;-80
2023/12/26 12:28:17;;;;;;;1.90;1.60;;;11.00;99.90;;;;;;5063089;28;20456;-79
2023/12/26 12:31:06;;;;;;;2.30;1.60;;;11.20;99.90;;;;;;5062637;28;20519;-80
2023/12/26 12:33:41;;;;;;;1.30;1.20;;;10.90;99.90;;;;;;5060182;28;20482;-81
2023/12/26 12:36:15;;;;;;;0.97;0.97;;;10.90;99.90;;;;;;5060547;28;20449;-82
2023/12/26 12:38:48;;;;;;;1.43;1.03;;;11.00;99.90;;;;;;5060153;28;20444;-79
2023/12/26 12:41:23;;;;;;;2.07;1.87;;;11.00;99.90;;;;;;5059271;28;20872;-81
2023/12/26 12:46:44;;;;;;;1.03;0.90;;;10.80;99.90;;;;;;5048976;28;20434;-83
2023/12/26 12:49:12;;;;;;;1.10;1.10;;;11.30;99.90;;;;;;5061709;28;20533;-82
2023/12/26 12:51:44;;;;;;;1.00;0.90;;;11.10;99.90;;;;;;5061214;28;20529;-83
2023/12/26 12:54:12;;;;;;;0.70;0.70;;;11.00;99.90;;;;;;5060732;28;20460;-83
2023/12/26 12:57:10;;;;;;;0.97;0.97;;;10.90;99.90;;;;;;5060798;28;20450;-82
2023/12/26 12:59:43;;;;;;;1.20;1.10;;;10.90;99.90;;;;;;5059895;28;20453;-83
2023/12/26 13:02:16;;;;;;;1.30;0.87;;;10.80;99.90;;;;;;5059007;28;20465;-83
2023/12/26 13:04:54;;;;;;;0.80;0.80;;;10.80;99.90;;;;;;5059445;28;20454;-83
2023/12/26 13:07:28;;;;;;;1.00;1.00;;;10.80;99.90;;;;;;5062696;28;20479;-84
2023/12/26 13:10:11;;;;;;;1.20;1.10;;;10.70;99.90;;;;;;5063411;28;20463;-84
2023/12/26 13:12:56;;;;;;;2.70;1.17;;;10.80;99.90;;;;;;5063824;28;20477;-82
2023/12/26 13:15:39;;;;;;;1.00;1.00;;;10.90;99.90;;;;;;5064386;28;20445;-83
2023/12/26 13:18:20;;;;;;;1.90;1.20;;;10.90;99.90;;;;;;5063601;28;20617;-82
2023/12/26 13:21:04;;;;;;;1.10;1.00;;;10.90;99.90;;;;;;5062680;28;20472;-82
2023/12/26 13:23:50;;;;;;;1.10;1.00;;;10.90;99.90;;;;;;5062943;28;20469;-84
2023/12/26 13:26:26;;;;;;;1.00;1.00;;;10.80;99.90;;;;;;5063497;28;20548;-83
2023/12/26 13:29:24;;;;;;;1.00;1.00;;;10.80;99.90;;;;;;5064851;28;20457;-82
2023/12/26 13:32:03;;;;;;;0.70;0.70;;;10.80;99.90;;;;;;5065095;28;20469;-84
2023/12/26 13:34:41;;;;;;;0.90;0.90;;;10.80;99.90;;;;;;5064528;28;20457;-83
2023/12/26 13:37:30;;;;;;;1.17;0.97;;;10.80;99.90;;;;;;5064223;28;20453;-82
2023/12/26 13:40:06;;;;;;;0.93;0.93;;;10.80;99.90;;;;;;5065510;28;20445;-83
2023/12/26 13:42:36;;;;;;;0.93;0.93;;;10.80;99.90;;;;;;5065465;28;20452;-84
2023/12/26 13:45:40;;;;;;;1.07;1.07;;;10.70;99.90;;;;;;5068619;28;20453;-85
2023/12/26 13:48:17;;;;;;;1.27;0.93;;;10.90;99.90;;;;;;5060545;28;20476;-84
2023/12/26 13:51:01;;;;;;;0.90;0.90;;;10.70;99.90;;;;;;5071892;28;20533;-83
2023/12/26 13:54:10;;;;;;;1.00;1.00;;;10.70;99.90;;;;;;5070155;28;21048;-83
2023/12/26 13:57:07;;;;;;;0.83;0.83;;;10.70;99.90;;;;;;5069589;28;20479;-84
2023/12/26 13:59:43;;;;;;;0.90;0.90;;;10.70;99.90;;;;;;5068957;28;20460;-82
2023/12/26 14:05:29;;;;;;;1.17;1.07;;;10.70;99.90;;;;;;5062248;28;20445;-83
2023/12/26 14:08:05;;;;;;;1.07;1.07;;;10.60;99.90;;;;;;5050601;28;20450;-84
2023/12/26 14:10:56;;;;;;;0.97;0.97;;;10.60;99.90;;;;;;5049224;28;20466;-84
2023/12/26 14:13:35;;;;;;;1.17;1.07;;;10.70;99.90;;;;;;5048480;28;20478;-82
2023/12/26 14:16:22;;;;;;;0.97;0.97;;;10.70;99.90;;;;;;5048350;28;20858;-84
2023/12/26 14:19:19;;;;;;;0.80;0.80;;;10.60;99.90;;;;;;5047983;28;20832;-81
2023/12/26 14:21:58;;;;;;;0.80;0.80;;;10.60;99.90;;;;;;5046982;28;20470;-83
2023/12/26 14:27:30;;;;;;;1.33;1.23;;;10.40;99.90;;;;;;5042154;28;20904;-83
2023/12/26 14:30:10;;;;;;;1.03;1.00;;;10.70;99.90;;;;;;5043344;28;20450;-82
2023/12/26 14:32:43;;;;;;;1.27;1.17;;;10.70;99.90;;;;;;5045117;28;20545;-83
2023/12/26 14:35:19;;;;;;;1.00;1.00;;;10.60;99.90;;;;;;5042353;28;20526;-85
2023/12/26 14:37:58;;;;;;;0.83;0.83;;;10.60;99.90;;;;;;5042704;28;20453;-83
2023/12/26 14:40:32;;;;;;;1.63;1.00;;;10.70;99.90;;;;;;5043405;28;20496;-83
2023/12/26 14:43:25;;;;;;;0.83;0.83;;;10.70;99.90;;;;;;5049167;28;20442;-84
2023/12/26 14:45:59;;;;;;;0.83;0.83;;;10.70;99.90;;;;;;5050452;28;20458;-85
2023/12/26 14:51:44;;;;;;;1.20;1.10;;;10.70;99.90;;;;;;5032721;28;20498;-84
2023/12/26 14:54:36;;;;;;;1.20;1.10;;;10.70;99.90;;;;;;5048411;28;20987;-83
2023/12/26 15:00:08;;;;;;;1.20;1.10;;;10.60;99.90;;;;;;5045498;28;20454;-83
2023/12/26 15:02:56;;;;;;;1.63;1.20;;;10.80;99.90;;;;;;5046926;28;20443;-82
2023/12/26 15:05:45;;;;;;;1.13;1.07;;;10.60;99.90;;;;;;5057022;28;20445;-86
2023/12/26 15:08:31;;;;;;;1.30;1.30;;;10.60;99.90;;;;;;5068327;28;20465;-84
2023/12/26 15:11:24;;;;;;;1.30;1.20;;;10.60;99.90;;;;;;5067098;28;20552;-83
2023/12/26 15:14:01;;;;;;;1.33;1.20;;;10.60;99.90;;;;;;5068922;28;20484;-83
2023/12/26 15:16:53;;;;;;;1.20;1.10;;;10.50;99.90;;;;;;5066095;28;20453;-84
2023/12/26 15:19:31;;;;;;;0.93;0.93;;;10.50;99.90;;;;;;5067099;28;20499;-83
2023/12/26 15:22:07;;;;;;;1.80;1.63;;;10.50;99.90;;;;;;5069774;28;20469;-84
2023/12/26 15:24:38;;;;;;;1.30;1.20;;;10.50;99.90;;;;;;5064496;28;20472;-83
2023/12/26 15:27:06;;;;;;;1.87;1.30;;;10.50;99.90;;;;;;5058018;28;20596;-81
2023/12/26 15:29:58;;;;;;;1.10;1.10;;;10.40;99.90;;;;;;5056275;28;20484;-83
2023/12/26 15:32:31;;;;;;;1.40;1.30;;;10.20;99.90;;;;;;5059627;28;20874;-83
2023/12/26 15:35:04;;;;;;;1.30;1.30;;;10.40;99.90;;;;;;5058862;28;20536;-85
2023/12/26 15:37:43;;;;;;;1.70;1.60;;;10.40;99.90;;;;;;5058177;28;20598;-83
2023/12/26 15:40:37;;;;;;;2.77;1.80;;;10.40;99.90;;;;;;5061051;28;21004;-83
2023/12/26 15:43:13;;;;;;;1.50;1.40;;;10.40;99.90;;;;;;5061615;28;20446;-83
2023/12/26 15:45:47;;;;;;;2.03;1.07;;;10.40;99.90;;;;;;5060540;28;20478;-82
2023/12/26 15:48:24;;;;;;;1.60;1.50;;;10.40;99.90;;;;;;5060499;28;20450;-84
2023/12/26 15:51:01;;;;;;;1.30;1.30;;;10.40;99.90;;;;;;5065984;28;20527;-83
2023/12/26 15:53:36;;;;;;;1.47;1.37;;;10.40;99.90;;;;;;5061897;28;20480;-82
2023/12/26 15:56:16;;;;;;;1.80;1.60;;;10.40;99.90;;;;;;5064263;28;20516;-84
2023/12/26 15:58:47;;;;;;;1.57;1.47;;;10.40;99.90;;;;;;5062730;28;20450;-82
2023/12/26 16:01:20;;;;;;;2.57;1.27;;;10.30;99.90;;;;;;5062462;28;21012;-85
2023/12/26 16:03:55;;;;;;;1.87;1.77;;;10.30;99.90;;;;;;5061881;28;20456;-84
2023/12/26 16:06:29;;;;;;;1.53;1.53;;;10.40;99.90;;;;;;5062409;28;20414;-83
2023/12/26 16:09:06;;;;;;;1.50;1.40;;;10.40;99.90;;;;;;5059671;28;20458;-82
2023/12/26 16:11:56;;;;;;;5.87;1.97;;;10.20;99.90;;;;;;5060024;28;20465;-84
2023/12/26 16:14:39;;;;;;;1.70;1.60;;;10.30;99.90;;;;;;5059881;28;20902;-84
2023/12/26 16:17:15;;;;;;;1.70;1.60;;;10.00;99.90;;;;;;5058647;28;20457;-81
2023/12/26 16:19:46;;;;;;;1.60;1.50;;;10.30;99.90;;;;;;5059355;28;20449;-83
2023/12/26 16:22:27;;;;;;;1.47;1.37;;;10.30;99.90;;;;;;5060252;28;20469;-82
2023/12/26 16:25:09;;;;;;;1.70;1.50;;;10.30;99.90;;;;;;5059482;28;20461;-83
2023/12/26 16:27:50;;;;;;;1.80;1.70;;;10.30;99.90;;;;;;5060166;28;20434;-83
2023/12/26 16:30:24;;;;;;;1.73;1.60;;;10.30;99.90;;;;;;5061388;28;20473;-82
2023/12/26 16:32:58;;;;;;;1.77;1.67;;;10.20;99.90;;;;;;5062399;28;20446;-82
2023/12/26 16:35:34;;;;;;;1.73;1.63;;;10.20;99.90;;;;;;5062670;28;20410;-85
2023/12/26 16:38:31;;;;;;;1.93;1.83;;;10.20;99.90;;;;;;5062088;28;20476;-84
2023/12/26 16:41:13;;;;;;;1.60;1.50;;;10.20;99.90;;;;;;5061386;28;20501;-85
2023/12/26 16:43:53;;;;;;;1.97;1.87;;;10.10;99.90;;;;;;5061916;28;20453;-83
2023/12/26 16:46:45;;;;;;;1.23;1.20;;;10.20;99.90;;;;;;5061556;28;20461;-83
2023/12/26 16:49:30;;;;;;;1.73;1.60;;;10.30;99.90;;;;;;5060294;28;20471;-82
2023/12/26 16:52:10;;;;;;;1.57;1.47;;;10.10;99.90;;;;;;5061366;28;20500;-84
2023/12/26 16:55:07;;;;;;;1.47;1.20;;;10.00;99.90;;;;;;5022290;28;20474;-82
2023/12/26 16:57:44;;;;;;;1.10;1.10;;;10.00;99.90;;;;;;5040913;28;20454;-84
2023/12/26 17:00:24;;;;;;;1.50;1.40;;;10.00;99.90;;;;;;5040571;28;20454;-82
2023/12/26 17:03:10;;;;;;;1.00;1.00;;;10.00;99.90;;;;;;5040276;28;20491;-83
2023/12/26 17:06:06;;;;;;;1.47;1.37;;;9.70;99.90;;;;;;5041764;28;20450;-82
2023/12/26 17:09:01;;;;;;;1.30;1.30;;;9.90;99.90;;;;;;5040969;28;20450;-83
2023/12/26 17:11:53;;;;;;;1.20;1.20;;;9.90;99.90;;;;;;5041110;28;20490;-82
2023/12/26 17:14:43;;;;;;;1.30;1.30;;;9.90;99.90;;;;;;5037645;28;20463;-85
2023/12/26 17:17:31;;;;;;;2.00;1.90;;;9.90;99.90;;;;;;5040985;28;20564;-83
2023/12/26 17:20:19;;;;;;;2.00;1.90;;;10.00;99.90;;;;;;5026341;28;20438;-83
2023/12/26 17:22:55;;;;;;;2.20;2.00;;;10.00;99.90;;;;;;5024084;28;20439;-83
2023/12/26 17:25:39;;;;;;;2.13;2.03;;;10.00;99.90;;;;;;5021409;28;20556;-83
2023/12/26 17:28:19;;;;;;;1.87;1.77;;;10.00;99.90;;;;;;5021710;28;20525;-83
2023/12/26 17:31:12;;;;;;;4.00;1.97;;;10.00;99.90;;;;;;5022945;28;20499;-84
2023/12/26 17:36:55;;;;;;;2.23;2.10;;;10.00;99.90;;;;;;5023268;28;20534;-83
2023/12/26 17:39:38;;;;;;;2.03;1.83;;;10.00;99.90;;;;;;5023258;28;20998;-83
2023/12/26 17:42:29;;;;;;;2.40;2.20;;;10.00;99.90;;;;;;5022704;28;20558;-85
2023/12/26 17:45:18;;;;;;;2.07;1.87;;;10.00;99.90;;;;;;5022778;28;20909;-84
2023/12/26 17:47:55;;;;;;;3.50;2.33;;;10.00;99.90;;;;;;5023777;28;20457;-80
2023/12/26 17:50:32;;;;;;;2.20;2.00;;;10.00;99.90;;;;;;5023642;28;20473;-81
2023/12/26 17:53:18;;;;;;;2.83;2.50;;;10.00;99.90;;;;;;5014765;28;20445;-82
2023/12/26 17:56:08;;;;;;;2.63;2.13;;;10.00;99.90;;;;;;5031204;28;20456;-82
2023/12/26 17:58:40;;;;;;;2.30;2.10;;;10.00;99.90;;;;;;5031069;28;20498;-80
2023/12/26 18:01:28;;;;;;;2.07;1.90;;;10.20;99.90;;;;;;5031447;28;20497;-80
2023/12/26 18:04:01;;;;;;;2.70;1.97;;;10.00;99.90;;;;;;5033310;28;20439;-80
2023/12/26 18:06:59;;;;;;;2.60;1.93;;;10.00;99.90;;;;;;5054322;28;20457;-81
2023/12/26 18:09:39;;;;;;;3.00;2.30;;;9.90;99.90;;;;;;5051923;28;20454;-81
2023/12/26 18:12:32;;;;;;;3.40;2.20;;;9.90;99.90;;;;;;5051403;28;20449;-81
2023/12/26 18:18:35;;;;;;;3.07;2.77;;;9.60;99.90;;;;;;5034302;28;20506;-81
2023/12/26 18:25:05;;;;;;;4.80;2.80;;;9.90;99.90;;;;;;5008007;28;20856;-80
2023/12/26 18:28:34;;;;;;;4.30;2.70;;;9.90;99.90;;;;;;5020374;28;20450;-82
2023/12/26 18:34:57;;;;;;;;;;;;;;;;;;;;;
2023/12/26 18:37:38;;;;;;;2.60;2.40;;;9.60;99.90;;;;;;5028939;28;20454;-80
2023/12/26 18:40:17;;;;;;;2.60;2.40;;;9.90;99.90;;;;;;5039596;28;20458;-83
2023/12/26 18:42:52;;;;;;;4.10;2.60;;;9.90;99.90;;;;;;5034513;28;20454;-82
2023/12/26 18:45:38;;;;;;;3.50;2.63;;;9.80;99.90;;;;;;5041311;28;20434;-81
2023/12/26 18:48:17;;;;;;;2.53;2.37;;;9.80;99.90;;;;;;5047993;28;20455;-81
2023/12/26 18:50:54;;;;;;;3.00;2.70;;;9.90;99.90;;;;;;5039416;28;20452;-80
2023/12/26 18:53:39;;;;;;;3.17;2.87;;;9.90;99.90;;;;;;5033969;28;20514;-80
2023/12/26 18:56:27;;;;;;;2.73;2.53;;;9.90;99.90;;;;;;5046529;28;20548;-84
2023/12/26 18:59:17;;;;;;;3.63;2.70;;;9.90;99.90;;;;;;5030447;28;20452;-81
2023/12/26 19:01:59;;;;;;;2.90;2.70;;;9.90;99.90;;;;;;5041142;28;20473;-79
2023/12/26 19:04:45;;;;;;;7.20;2.90;;;9.60;99.90;;;;;;5047811;28;20442;-85
2023/12/26 19:07:16;;;;;;;2.80;2.60;;;9.90;99.90;;;;;;5046517;28;20446;-79
2023/12/26 19:13:22;;;;;;;3.20;2.50;;;9.90;99.90;;;;;;5028472;28;20434;-83
2023/12/26 19:18:48;;;;;;;3.40;2.83;;;9.80;99.90;;;;;;5041579;28;20440;-81
2023/12/26 19:21:35;;;;;;;2.50;2.40;;;9.80;99.90;;;;;;5037589;28;20482;-81
2023/12/26 19:24:03;;;;;;;3.03;2.80;;;9.80;99.90;;;;;;5039249;28;20447;-83
2023/12/26 19:26:40;;;;;;;3.10;2.90;;;9.90;99.90;;;;;;5041935;28;20451;-83
2023/12/26 19:29:15;;;;;;;4.20;3.33;;;9.80;99.90;;;;;;5042129;28;20890;-81
2023/12/26 19:31:44;;;;;;;3.67;3.30;;;9.80;99.90;;;;;;5034420;28;20461;-80
2023/12/26 19:34:25;;;;;;;6.20;4.00;;;9.80;99.90;;;;;;5047213;28;20542;-80
2023/12/26 19:37:03;;;;;;;3.50;3.20;;;9.80;99.90;;;;;;5040400;28;20482;-80
2023/12/26 19:39:36;;;;;;;3.00;2.80;;;9.90;99.90;;;;;;5039004;28;20447;-82
2023/12/26 19:42:10;;;;;;;3.13;2.87;;;10.00;99.90;;;;;;5035556;28;20453;-81
2023/12/26 19:44:45;;;;;;;2.90;2.60;;;9.70;99.90;;;;;;5044699;28;20558;-83
2023/12/26 19:47:22;;;;;;;5.57;2.70;;;9.70;99.90;;;;;;5023941;28;20461;-83
2023/12/26 19:50:03;;;;;;;2.83;2.63;;;9.70;99.90;;;;;;5026691;28;20470;-80
2023/12/26 19:52:36;;;;;;;3.73;2.80;;;9.60;99.90;;;;;;5029428;28;20618;-82
2023/12/26 19:55:15;;;;;;;3.87;2.60;;;9.70;99.90;;;;;;5031276;28;20506;-83
2023/12/26 19:57:52;;;;;;;2.60;2.40;;;9.70;99.90;;;;;;5050541;28;20474;-82
2023/12/26 20:00:38;;;;;;;5.13;2.30;;;9.70;99.90;;;;;;5038431;28;20481;-83
2023/12/26 20:03:10;;;;;;;2.97;2.40;;;9.40;99.90;;;;;;5048384;28;20446;-82
2023/12/26 20:05:44;;;;;;;2.87;2.60;;;9.60;99.90;;;;;;5043691;28;20518;-83
2023/12/26 20:08:23;;;;;;;3.57;2.60;;;9.60;99.90;;;;;;5043729;28;20537;-81
2023/12/26 20:11:05;;;;;;;3.63;2.50;;;9.50;99.90;;;;;;5031024;28;20474;-80
2023/12/26 20:13:41;;;;;;;2.57;2.37;;;9.50;99.90;;;;;;5021932;28;20435;-81
2023/12/26 20:16:13;;;;;;;2.80;2.60;;;9.50;99.90;;;;;;5031562;28;20466;-79
2023/12/26 20:18:49;;;;;;;3.10;2.90;;;9.50;99.90;;;;;;5034374;28;20562;-79
2023/12/26 20:21:32;;;;;;;2.77;2.57;;;9.50;99.90;;;;;;5025896;28;20913;-79
2023/12/26 20:24:13;;;;;;;2.70;2.43;;;9.20;99.90;;;;;;5021996;28;20525;-80
2023/12/26 20:27:05;;;;;;;2.47;2.30;;;9.50;99.90;;;;;;5025241;28;20947;-82
2023/12/26 20:29:45;;;;;;;2.60;2.30;;;9.50;99.90;;;;;;5034813;28;20817;-81
2023/12/26 20:32:26;;;;;;;2.30;2.20;;;9.50;99.90;;;;;;5030446;28;20467;-80
2023/12/26 20:34:58;;;;;;;2.60;2.50;;;9.50;99.90;;;;;;5036713;28;20855;-80
2023/12/26 20:37:32;;;;;;;2.93;2.73;;;9.50;99.90;;;;;;5037237;28;20521;-81
2023/12/26 20:40:16;;;;;;;4.20;3.00;;;9.50;99.90;;;;;;5037181;28;20431;-82
2023/12/26 20:42:55;;;;;;;3.57;3.20;;;9.50;99.90;;;;;;5043042;28;20415;-82
2023/12/26 20:45:36;;;;;;;3.27;2.97;;;9.50;99.90;;;;;;5038128;28;20448;-79
2023/12/26 20:48:17;;;;;;;2.80;2.60;;;9.50;99.90;;;;;;5036642;28;20463;-81
2023/12/26 20:50:49;;;;;;;2.90;2.70;;;9.60;99.90;;;;;;5034213;28;20463;-81
2023/12/26 20:53:27;;;;;;;5.20;3.37;;;9.50;99.90;;;;;;5038164;28;20447;-80
2023/12/26 20:56:03;;;;;;;3.67;3.30;;;9.50;99.90;;;;;;5038743;28;20472;-81
2023/12/26 20:58:38;;;;;;;4.73;3.47;;;9.60;99.90;;;;;;5037347;28;20451;-82
2023/12/26 21:01:13;;;;;;;3.40;3.10;;;9.60;99.90;;;;;;5040681;28;20883;-81
2023/12/26 21:03:45;;;;;;;3.53;2.90;;;9.60;99.90;;;;;;5036075;28;20495;-82
2023/12/26 21:06:24;;;;;;;2.97;2.77;;;9.30;99.90;;;;;;5034879;28;20501;-80
2023/12/26 21:09:15;;;;;;;2.83;2.63;;;9.50;99.90;;;;;;5034715;28;20453;-81
2023/12/26 21:11:52;;;;;;;2.87;2.67;;;9.20;99.90;;;;;;5033569;28;20454;-81
2023/12/26 21:14:23;;;;;;;2.90;2.70;;;9.50;99.90;;;;;;5021196;28;20490;-80
2023/12/26 21:16:55;;;;;;;2.73;2.53;;;9.50;99.90;;;;;;5022590;28;20509;-81
2023/12/26 21:19:38;;;;;;;3.00;2.80;;;9.50;99.90;;;;;;5023979;28;20515;-81
2023/12/26 21:22:20;;;;;;;4.03;3.00;;;9.40;99.90;;;;;;5022485;28;20944;-82
2023/12/26 21:25:10;;;;;;;3.27;2.87;;;9.50;99.90;;;;;;5021620;28;20467;-81
2023/12/26 21:27:47;;;;;;;3.80;3.40;;;9.50;99.90;;;;;;5023696;28;20741;-82
2023/12/26 21:30:20;;;;;;;4.67;3.67;;;9.50;99.90;;;;;;5025120;28;21138;-80
2023/12/26 21:32:57;;;;;;;3.07;2.67;;;9.50;99.90;;;;;;5023173;28;20538;-82
2023/12/26 21:35:39;;;;;;;3.30;2.80;;;9.70;99.90;;;;;;5025751;28;20475;-80
2023/12/26 21:38:11;;;;;;;3.20;2.40;;;9.50;99.90;;;;;;5026256;28;20958;-80
2023/12/26 21:40:50;;;;;;;2.80;2.60;;;9.50;99.90;;;;;;5026859;28;20673;-81
2023/12/26 21:43:32;;;;;;;3.63;2.53;;;9.50;99.90;;;;;;5026287;28;20498;-80
2023/12/26 21:46:08;;;;;;;2.20;2.03;;;9.50;99.90;;;;;;5026811;28;20470;-83
2023/12/26 21:48:54;;;;;;;3.60;2.60;;;9.50;99.90;;;;;;5026411;28;20654;-80
2023/12/26 21:51:46;;;;;;;3.87;2.80;;;9.50;99.90;;;;;;5025291;28;20467;-83
2023/12/26 21:54:24;;;;;;;3.67;3.37;;;9.50;99.90;;;;;;5023508;28;20466;-81
2023/12/26 21:56:58;;;;;;;4.57;3.50;;;9.50;99.90;;;;;;5025767;28;20469;-83
2023/12/26 21:59:30;;;;;;;3.40;3.10;;;9.50;99.90;;;;;;5026640;28;20454;-84
2023/12/26 22:02:02;;;;;;;4.40;3.60;;;9.50;99.90;;;;;;5028111;28;20892;-82
2023/12/26 22:04:47;;;;;;;3.40;3.10;;;9.40;99.90;;;;;;5027651;28;20462;-83
2023/12/26 22:07:28;;;;;;;3.73;3.23;;;9.10;99.90;;;;;;5027576;28;20419;-82
2023/12/26 22:10:05;;;;;;;3.60;3.20;;;9.40;99.90;;;;;;5025941;28;20502;-81
2023/12/26 22:13:05;;;;;;;3.43;3.00;;;9.00;99.90;;;;;;5028368;28;20515;-83
2023/12/26 22:15:42;;;;;;;4.50;3.17;;;9.30;99.90;;;;;;5027064;28;20479;-82
2023/12/26 22:18:16;;;;;;;3.90;3.60;;;9.40;99.90;;;;;;5029088;28;20455;-82
2023/12/26 22:20:47;;;;;;;4.00;3.33;;;9.20;99.90;;;;;;5026371;28;20490;-82
2023/12/26 22:23:17;;;;;;;4.30;3.00;;;9.20;99.90;;;;;;5028036;28;20447;-82
2023/12/26 22:25:46;;;;;;;3.67;2.63;;;9.30;99.90;;;;;;5028328;28;20455;-82
2023/12/26 22:28:21;;;;;;;4.30;2.70;;;9.30;99.90;;;;;;5027527;28;20519;-82
2023/12/26 22:30:56;;;;;;;5.77;2.53;;;9.30;99.90;;;;;;5030388;28;20976;-82
2023/12/26 22:33:34;;;;;;;2.70;2.50;;;9.40;99.90;;;;;;5025558;28;20454;-82
2023/12/26 22:36:09;;;;;;;4.43;2.73;;;9.10;99.90;;;;;;5028553;28;20506;-83
2023/12/26 22:38:46;;;;;;;7.27;3.40;;;9.40;99.90;;;;;;5025058;28;20947;-83
2023/12/26 22:44:16;;;;;;;3.43;2.20;;;9.10;99.90;;;;;;5027153;28;20420;-82
2023/12/26 22:46:54;;;;;;;2.37;2.10;;;9.40;99.90;;;;;;5029719;28;20439;-82
2023/12/26 22:49:25;;;;;;;3.30;3.00;;;9.40;99.90;;;;;;5032947;28;20490;-82
2023/12/26 22:52:03;;;;;;;2.40;2.20;;;9.40;99.90;;;;;;5034706;28;20451;-83
2023/12/26 22:54:36;;;;;;;2.73;2.20;;;9.40;99.90;;;;;;5032841;28;20430;-83
2023/12/26 22:57:07;;;;;;;3.80;2.50;;;9.30;99.90;;;;;;5033339;28;20436;-84
2023/12/26 22:59:44;;;;;;;2.57;2.40;;;9.00;99.90;;;;;;5033755;28;20439;-84
2023/12/26 23:02:27;;;;;;;3.03;2.40;;;9.30;99.90;;;;;;5028891;28;20474;-83
2023/12/26 23:05:07;;;;;;;5.80;2.67;;;9.30;99.90;;;;;;5027745;28;20431;-84
2023/12/26 23:07:40;;;;;;;2.70;2.50;;;9.00;99.90;;;;;;5028202;28;20458;-85
2023/12/26 23:10:19;;;;;;;2.83;2.60;;;9.30;99.90;;;;;;5026855;28;20514;-83
2023/12/26 23:13:04;;;;;;;3.20;2.90;;;9.40;99.90;;;;;;5027624;28;20478;-83
2023/12/26 23:15:37;;;;;;;3.10;2.63;;;9.10;99.90;;;;;;5026445;28;20482;-84
2023/12/26 23:18:20;;;;;;;3.53;2.40;;;9.40;99.90;;;;;;5027955;28;20482;-83
2023/12/26 23:21:00;;;;;;;3.20;2.60;;;9.40;99.90;;;;;;5033240;28;20468;-83
2023/12/26 23:23:34;;;;;;;2.57;2.37;;;9.40;99.90;;;;;;5032940;28;20518;-82
2023/12/26 23:26:10;;;;;;;3.57;2.93;;;9.40;99.90;;;;;;5027683;28;20551;-83
2023/12/26 23:28:58;;;;;;;5.20;2.57;;;9.30;99.90;;;;;;5028470;28;20432;-82
2023/12/26 23:31:35;;;;;;;2.97;2.70;;;9.40;99.90;;;;;;5027356;28;20494;-82
2023/12/26 23:34:14;;;;;;;3.27;2.23;;;9.30;99.90;;;;;;5045766;28;20470;-83
2023/12/26 23:36:44;;;;;;;2.90;2.50;;;9.30;99.90;;;;;;5046996;28;20573;-83
2023/12/26 23:39:20;;;;;;;2.87;2.67;;;9.40;99.90;;;;;;5030409;28;20438;-82
2023/12/26 23:42:07;;;;;;;2.80;2.10;;;9.40;99.90;;;;;;5034753;28;20472;-83
2023/12/26 23:44:53;;;;;;;2.13;1.93;;;9.30;99.90;;;;;;5040758;28;20501;-82
2023/12/26 23:47:32;;;;;;;3.47;2.03;;;9.40;99.90;;;;;;5040600;28;20454;-82
2023/12/26 23:50:25;;;;;;;1.83;1.70;;;9.30;99.90;;;;;;5033647;28;20470;-82
2023/12/26 23:53:01;;;;;;;2.90;2.20;;;9.30;99.90;;;;;;5041329;28;20926;-82
2023/12/26 23:55:44;;;;;;;3.93;1.70;;;9.30;99.90;;;;;;5043425;28;20481;-82
2023/12/26 23:58:54;;;;;;;1.97;1.87;;;9.50;99.90;;;;;;5041261;28;20450;-83
